createdAt,value
2023-06-10T00:02:04.195Z,82.27
2023-06-10T00:04:38.257Z,82.80
2023-06-10T00:07:11.317Z,82.54
2023-06-10T00:09:44.698Z,82.51
2023-06-10T00:12:25.455Z,82.92
2023-06-10T00:15:00.746Z,82.74
2023-06-10T00:17:41.050Z,82.92
2023-06-10T00:20:17.441Z,82.90
2023-06-10T00:23:03.507Z,82.51
2023-06-10T00:25:34.654Z,82.76
2023-06-10T00:28:10.434Z,82.35
2023-06-10T00:30:45.570Z,82.28
2023-06-10T00:33:21.651Z,81.94
2023-06-10T00:35:54.141Z,81.80
2023-06-10T00:38:27.724Z,81.06
2023-06-10T00:41:05.287Z,81.02
2023-06-10T00:43:39.401Z,81.04
2023-06-10T00:46:16.487Z,81.84
2023-06-10T00:48:54.560Z,81.82
2023-06-10T00:51:30.758Z,81.78
2023-06-10T00:54:06.033Z,82.13
2023-06-10T00:56:38.755Z,82.25
2023-06-10T00:59:16.344Z,82.04
2023-06-10T01:01:52.334Z,82.53
2023-06-10T01:04:29.941Z,83.01
2023-06-10T01:07:27.944Z,83.28
2023-06-10T01:10:05.208Z,82.82
2023-06-10T01:12:52.149Z,83.26
2023-06-10T01:15:34.178Z,83.42
2023-06-10T01:18:11.251Z,83.14
2023-06-10T01:20:51.468Z,82.87
2023-06-10T01:23:32.656Z,83.43
2023-06-10T01:26:15.104Z,83.38
2023-06-10T01:28:56.380Z,83.13
2023-06-10T01:31:44.001Z,83.51
2023-06-10T01:34:23.214Z,84.24
2023-06-10T01:36:57.982Z,84.79
2023-06-10T01:39:34.144Z,84.78
2023-06-10T01:42:14.344Z,85.01
2023-06-10T01:44:44.680Z,85.05
2023-06-10T01:47:16.181Z,85.43
2023-06-10T01:49:49.019Z,86.45
2023-06-10T01:52:20.297Z,86.61
2023-06-10T01:55:04.453Z,86.99
2023-06-10T01:57:44.977Z,86.88
2023-06-10T02:00:22.565Z,87.62
2023-06-10T02:03:14.879Z,87.84
2023-06-10T02:05:50.870Z,88.13
2023-06-10T02:08:25.329Z,88.89
2023-06-10T02:11:01.769Z,89.31
2023-06-10T02:13:39.075Z,88.85
2023-06-10T02:16:14.497Z,89.54
2023-06-10T02:18:49.403Z,89.78
2023-06-10T02:21:22.173Z,89.90
2023-06-10T02:24:01.328Z,89.84
2023-06-10T02:26:38.548Z,90.28
2023-06-10T02:29:12.462Z,90.97
2023-06-10T02:31:50.867Z,91.25
2023-06-10T02:34:29.951Z,92.77
2023-06-10T02:37:11.912Z,93.78
2023-06-10T02:39:43.259Z,93.28
2023-06-10T02:42:25.401Z,93.93
2023-06-10T02:44:56.789Z,94.72
2023-06-10T02:47:46.911Z,95.87
2023-06-10T02:50:26.118Z,95.78
2023-06-10T02:53:18.666Z,96.07
2023-06-10T02:55:55.462Z,96.39
2023-06-10T02:58:33.537Z,96.33
2023-06-10T03:01:09.722Z,95.75
2023-06-10T03:03:52.453Z,95.53
2023-06-10T03:06:26.608Z,95.32
2023-06-10T03:09:09.137Z,95.08
2023-06-10T03:11:42.644Z,94.91
2023-06-10T03:14:15.733Z,94.80
2023-06-10T03:16:47.446Z,95.09
2023-06-10T03:19:19.813Z,97.10
2023-06-10T03:22:14.552Z,100.00
2023-06-10T03:24:54.791Z,100.00
2023-06-10T03:27:26.640Z,100.00
2023-06-10T03:30:04.558Z,100.00
2023-06-10T03:32:38.232Z,100.00
2023-06-10T03:35:16.229Z,100.00
2023-06-10T03:37:46.735Z,100.00
2023-06-10T03:40:17.459Z,100.00
2023-06-10T03:42:57.676Z,100.00
2023-06-10T03:45:37.719Z,100.00
2023-06-10T03:48:18.474Z,100.00
2023-06-10T03:51:02.211Z,100.00
2023-06-10T03:53:33.623Z,100.00
2023-06-10T03:56:09.649Z,98.95
2023-06-10T03:58:46.750Z,97.96
2023-06-10T04:01:24.633Z,98.71
2023-06-10T04:03:55.551Z,97.45
2023-06-10T04:06:36.169Z,96.51
2023-06-10T04:09:07.275Z,95.48
2023-06-10T04:11:39.973Z,95.88
2023-06-10T04:14:15.676Z,96.07
2023-06-10T04:16:57.647Z,95.84
2023-06-10T04:19:29.905Z,95.44
2023-06-10T04:22:12.737Z,94.67
2023-06-10T04:24:43.006Z,94.46
2023-06-10T04:27:19.919Z,93.69
2023-06-10T04:29:51.505Z,91.92
2023-06-10T04:32:30.405Z,91.29
2023-06-10T04:35:00.817Z,90.89
2023-06-10T04:37:36.986Z,89.48
2023-06-10T04:40:14.461Z,90.95
2023-06-10T04:42:55.387Z,89.95
2023-06-10T04:45:26.160Z,88.88
2023-06-10T04:48:08.114Z,88.87
2023-06-10T04:50:43.251Z,89.51
2023-06-10T04:53:16.673Z,89.48
2023-06-10T04:55:57.686Z,89.36
2023-06-10T04:58:30.395Z,87.85
2023-06-10T05:01:06.775Z,88.70
2023-06-10T05:03:42.131Z,88.40
2023-06-10T05:06:16.171Z,88.09
2023-06-10T05:08:50.936Z,87.91
2023-06-10T05:11:22.496Z,87.60
2023-06-10T05:13:53.448Z,87.51
2023-06-10T05:16:23.682Z,86.90
2023-06-10T05:18:56.994Z,86.66
2023-06-10T05:21:35.634Z,86.31
2023-06-10T05:24:14.301Z,86.35
2023-06-10T05:26:50.257Z,86.92
2023-06-10T05:29:22.964Z,85.09
2023-06-10T05:32:01.735Z,83.35
2023-06-10T05:34:39.726Z,82.06
2023-06-10T05:37:18.930Z,80.92
2023-06-10T05:39:49.511Z,81.65
2023-06-10T05:42:22.003Z,81.69
2023-06-10T05:44:54.768Z,81.53
2023-06-10T05:47:28.500Z,81.35
2023-06-10T05:50:22.175Z,80.62
2023-06-10T05:52:59.395Z,80.82
2023-06-10T05:55:36.602Z,79.87
2023-06-10T05:58:15.774Z,80.70
2023-06-10T06:00:53.871Z,81.04
2023-06-10T06:03:24.706Z,81.25
2023-06-10T06:06:04.977Z,80.47
2023-06-10T06:08:40.063Z,81.09
2023-06-10T06:11:23.757Z,79.93
2023-06-10T06:13:59.654Z,78.75
2023-06-10T06:16:30.871Z,78.33
2023-06-10T06:19:07.630Z,79.24
2023-06-10T06:21:43.666Z,79.73
2023-06-10T06:24:21.939Z,79.61
2023-06-10T06:26:52.411Z,77.55
2023-06-10T06:29:22.876Z,77.43
2023-06-10T06:31:55.757Z,76.32
2023-06-10T06:34:28.330Z,75.21
2023-06-10T06:37:01.166Z,72.96
2023-06-10T06:39:41.161Z,72.08
2023-06-10T06:42:16.251Z,72.65
2023-06-10T06:45:13.183Z,71.95
2023-06-10T06:47:49.375Z,70.05
2023-06-10T06:50:22.041Z,69.96
2023-06-10T06:52:57.960Z,71.79
2023-06-10T06:55:32.829Z,71.64
2023-06-10T06:58:11.889Z,72.58
2023-06-10T07:00:43.507Z,71.01
2023-06-10T07:03:19.046Z,70.88
2023-06-10T07:05:49.329Z,72.00
2023-06-10T07:08:22.728Z,73.72
2023-06-10T07:10:53.425Z,74.67
2023-06-10T07:13:33.282Z,74.80
2023-06-10T07:16:11.099Z,72.42
2023-06-10T07:18:43.575Z,73.57
2023-06-10T07:21:15.357Z,72.10
2023-06-10T07:23:49.672Z,72.12
2023-06-10T07:26:23.331Z,71.03
2023-06-10T07:28:54.215Z,71.61
2023-06-10T07:31:26.993Z,70.53
2023-06-10T07:33:57.291Z,69.70
2023-06-10T07:36:50.912Z,63.50
2023-06-10T07:39:31.772Z,66.79
2023-06-10T07:42:09.181Z,63.16
2023-06-10T07:44:42.130Z,61.49
2023-06-10T07:47:12.776Z,62.57
2023-06-10T07:49:43.529Z,61.62
2023-06-10T07:52:16.118Z,61.50
2023-06-10T07:54:50.276Z,62.36
2023-06-10T07:57:21.073Z,63.74
2023-06-10T07:59:53.138Z,63.98
2023-06-10T08:02:30.622Z,63.60
2023-06-10T08:05:00.929Z,64.23
2023-06-10T08:07:32.358Z,65.66
2023-06-10T08:10:05.490Z,66.23
2023-06-10T08:12:38.745Z,66.98
2023-06-10T08:15:12.649Z,66.95
2023-06-10T08:17:45.847Z,65.28
2023-06-10T08:20:16.268Z,63.22
2023-06-10T08:22:46.484Z,65.47
2023-06-10T08:25:20.850Z,63.70
2023-06-10T08:27:53.508Z,66.00
2023-06-10T08:30:23.738Z,67.48
2023-06-10T08:32:57.041Z,68.67
2023-06-10T08:35:30.242Z,68.35
2023-06-10T08:38:12.383Z,70.37
2023-06-10T08:40:48.752Z,69.62
2023-06-10T08:43:41.321Z,67.63
2023-06-10T08:46:20.106Z,67.54
2023-06-10T08:48:57.312Z,65.15
2023-06-10T08:51:31.491Z,67.49
2023-06-10T08:54:08.778Z,65.67
2023-06-10T08:56:48.471Z,65.86
2023-06-10T08:59:20.784Z,65.04
2023-06-10T09:01:52.368Z,63.55
2023-06-10T09:04:24.250Z,63.35
2023-06-10T09:06:57.236Z,63.00
2023-06-10T09:09:29.857Z,63.12
2023-06-10T09:12:03.359Z,64.21
2023-06-10T09:14:33.979Z,65.22
2023-06-10T09:17:06.604Z,65.05
2023-06-10T09:19:44.073Z,62.52
2023-06-10T09:22:23.035Z,64.75
2023-06-10T09:24:53.808Z,62.62
2023-06-10T09:27:28.075Z,60.64
2023-06-10T09:29:59.635Z,61.67
2023-06-10T09:32:42.866Z,61.29
2023-06-10T09:35:13.884Z,63.48
2023-06-10T09:37:44.353Z,59.65
2023-06-10T09:40:17.245Z,59.27
2023-06-10T09:42:55.135Z,59.31
2023-06-10T09:45:26.041Z,57.44
2023-06-10T09:47:57.399Z,57.95
2023-06-10T09:50:27.919Z,56.54
2023-06-10T09:52:58.271Z,55.14
2023-06-10T09:55:29.455Z,56.06
2023-06-10T09:58:03.457Z,55.74
2023-06-10T10:00:36.410Z,55.41
2023-06-10T10:03:08.377Z,56.81
2023-06-10T10:05:38.955Z,56.88
2023-06-10T10:08:08.958Z,58.52
2023-06-10T10:10:40.201Z,57.03
2023-06-10T10:13:13.290Z,55.79
2023-06-10T10:15:46.430Z,55.28
2023-06-10T10:18:22.126Z,53.18
2023-06-10T10:20:56.558Z,52.23
2023-06-10T10:23:34.245Z,54.60
2023-06-10T10:26:11.754Z,51.44
2023-06-10T10:28:53.869Z,52.28
2023-06-10T10:31:26.028Z,52.88
2023-06-10T10:34:00.061Z,53.07
2023-06-10T10:36:31.896Z,52.08
2023-06-10T10:39:04.869Z,56.62
2023-06-10T10:41:37.094Z,55.47
2023-06-10T10:44:12.729Z,54.65
2023-06-10T10:46:55.455Z,53.68
2023-06-10T10:49:30.032Z,53.47
2023-06-10T10:52:01.750Z,54.16
2023-06-10T10:54:36.688Z,52.52
2023-06-10T10:57:22.911Z,51.76
2023-06-10T11:00:11.946Z,52.45
2023-06-10T11:02:47.539Z,53.35
2023-06-10T11:05:20.225Z,52.71
2023-06-10T11:07:58.153Z,51.75
2023-06-10T11:10:35.594Z,50.88
2023-06-10T11:13:11.272Z,50.73
2023-06-10T11:15:49.138Z,50.67
2023-06-10T11:18:28.204Z,50.45
2023-06-10T11:21:03.960Z,50.22
2023-06-10T11:23:37.619Z,49.97
2023-06-10T11:26:18.404Z,50.41
2023-06-10T11:29:09.357Z,48.35
2023-06-10T11:31:50.059Z,50.23
2023-06-10T11:34:26.068Z,45.98
2023-06-10T11:36:58.418Z,47.67
2023-06-10T11:39:28.977Z,48.10
2023-06-10T11:41:59.470Z,47.85
2023-06-10T11:44:34.837Z,47.87
2023-06-10T11:47:08.390Z,50.16
2023-06-10T11:49:38.660Z,51.31
2023-06-10T11:52:09.750Z,52.18
2023-06-10T11:54:39.990Z,51.38
2023-06-10T11:57:10.450Z,51.14
2023-06-10T11:59:42.383Z,52.14
2023-06-10T12:02:20.653Z,52.98
2023-06-10T12:04:51.323Z,54.90
2023-06-10T12:07:22.572Z,54.52
2023-06-10T12:10:18.778Z,55.45
2023-06-10T12:12:54.350Z,56.37
2023-06-10T12:15:30.307Z,56.54
2023-06-10T12:18:03.875Z,59.71
2023-06-10T12:20:36.232Z,62.10
2023-06-10T12:23:14.022Z,63.17
2023-06-10T12:25:54.401Z,62.20
2023-06-10T12:28:26.034Z,60.50
2023-06-10T12:31:10.322Z,61.04
2023-06-10T12:33:44.948Z,58.23
2023-06-10T12:36:22.386Z,57.03
2023-06-10T12:38:53.931Z,56.25
2023-06-10T12:41:24.520Z,55.36
2023-06-10T12:43:56.374Z,55.58
2023-06-10T12:46:26.666Z,54.40
2023-06-10T12:48:59.668Z,55.17
2023-06-10T12:51:30.022Z,55.33
2023-06-10T12:54:00.508Z,56.88
2023-06-10T12:56:30.898Z,57.55
2023-06-10T12:59:01.236Z,58.39
2023-06-10T13:01:32.703Z,57.57
2023-06-10T13:04:06.104Z,58.13
2023-06-10T13:06:38.647Z,60.53
2023-06-10T13:09:10.967Z,58.18
2023-06-10T13:11:41.497Z,58.68
2023-06-10T13:14:11.849Z,60.16
2023-06-10T13:16:42.413Z,59.47
2023-06-10T13:19:15.283Z,53.06
2023-06-10T13:21:45.505Z,52.87
2023-06-10T13:24:15.985Z,55.44
2023-06-10T13:26:46.298Z,56.19
2023-06-10T13:29:16.847Z,57.52
2023-06-10T13:31:47.149Z,58.30
2023-06-10T13:34:20.633Z,57.09
2023-06-10T13:36:51.032Z,59.95
2023-06-10T13:39:21.318Z,59.53
2023-06-10T13:41:51.608Z,59.82
2023-06-10T13:44:21.911Z,57.47
2023-06-10T13:46:52.524Z,55.14
2023-06-10T13:49:25.627Z,52.94
2023-06-10T13:51:57.314Z,52.33
2023-06-10T13:54:28.487Z,53.30
2023-06-10T13:56:59.056Z,53.60
2023-06-10T13:59:29.557Z,51.63
2023-06-10T14:01:59.784Z,51.27
2023-06-10T14:04:33.814Z,50.50
2023-06-10T14:07:04.327Z,49.87
2023-06-10T14:09:34.567Z,48.90
2023-06-10T14:12:04.893Z,49.72
2023-06-10T14:14:35.368Z,48.76
2023-06-10T14:17:06.360Z,47.79
2023-06-10T14:19:39.519Z,47.68
2023-06-10T14:22:11.592Z,48.05
2023-06-10T14:24:41.860Z,47.08
2023-06-10T14:27:12.508Z,47.11
2023-06-10T14:29:42.913Z,46.11
2023-06-10T14:32:13.941Z,44.28
2023-06-10T14:34:48.340Z,44.50
2023-06-10T14:37:18.614Z,44.85
2023-06-10T14:39:48.951Z,43.15
2023-06-10T14:42:19.264Z,42.50
2023-06-10T14:44:50.765Z,44.07
2023-06-10T14:47:21.165Z,44.91
2023-06-10T14:49:55.075Z,43.76
2023-06-10T14:52:25.420Z,43.43
2023-06-10T14:54:56.012Z,41.50
2023-06-10T14:57:25.941Z,43.86
2023-06-10T14:59:57.439Z,41.87
2023-06-10T15:02:28.206Z,42.63
2023-06-10T15:05:01.384Z,42.43
2023-06-10T15:07:31.709Z,43.53
2023-06-10T15:10:02.078Z,45.31
2023-06-10T15:12:32.412Z,46.52
2023-06-10T15:15:03.361Z,46.92
2023-06-10T15:17:33.853Z,46.06
2023-06-10T15:20:08.052Z,44.41
2023-06-10T15:22:38.317Z,45.54
2023-06-10T15:25:29.242Z,47.47
2023-06-10T15:28:00.327Z,46.40
2023-06-10T15:30:31.176Z,47.31
2023-06-10T15:33:01.570Z,47.98
2023-06-10T15:35:34.471Z,47.33
2023-06-10T15:38:04.889Z,46.30
2023-06-10T15:40:36.433Z,47.71
2023-06-10T15:43:06.700Z,47.61
2023-06-10T15:45:37.020Z,47.81
2023-06-10T15:48:07.997Z,48.35
2023-06-10T15:50:41.071Z,46.99
2023-06-10T15:53:11.386Z,46.31
2023-06-10T15:55:41.679Z,46.58
2023-06-10T15:58:12.533Z,46.20
2023-06-10T16:00:43.025Z,46.83
2023-06-10T16:03:13.705Z,44.56
2023-06-10T16:05:46.820Z,45.92
2023-06-10T16:08:17.859Z,44.98
2023-06-10T16:10:48.414Z,44.13
2023-06-10T16:13:18.427Z,45.22
2023-06-10T16:15:49.050Z,45.16
2023-06-10T16:18:19.326Z,45.00
2023-06-10T16:20:52.745Z,43.83
2023-06-10T16:23:22.995Z,44.47
2023-06-10T16:25:53.573Z,45.27
2023-06-10T16:28:23.556Z,45.70
2023-06-10T16:30:54.050Z,45.70
2023-06-10T16:33:24.800Z,45.63
2023-06-10T16:35:58.084Z,44.51
2023-06-10T16:38:28.648Z,44.99
2023-06-10T16:40:59.076Z,45.53
2023-06-10T16:43:30.210Z,46.07
2023-06-10T16:46:00.714Z,47.53
2023-06-10T16:48:31.154Z,46.69
2023-06-10T16:51:04.677Z,46.21
2023-06-10T16:53:34.905Z,46.67
2023-06-10T16:56:05.471Z,46.17
2023-06-10T16:58:35.873Z,45.70
2023-06-10T17:01:08.493Z,45.50
2023-06-10T17:03:40.697Z,49.47
2023-06-10T17:06:13.552Z,51.41
2023-06-10T17:08:43.840Z,53.55
2023-06-10T17:11:14.240Z,55.33
2023-06-10T17:13:45.801Z,55.82
2023-06-10T17:16:16.697Z,56.65
2023-06-10T17:18:47.012Z,57.05
2023-06-10T17:21:20.303Z,57.21
2023-06-10T17:23:51.317Z,57.37
2023-06-10T17:26:21.952Z,57.50
2023-06-10T17:28:52.608Z,57.72
2023-06-10T17:31:22.592Z,57.90
2023-06-10T17:33:53.095Z,57.55
2023-06-10T17:36:26.337Z,57.00
2023-06-10T17:38:56.604Z,57.95
2023-06-10T17:41:27.477Z,57.98
2023-06-10T17:43:57.705Z,58.50
2023-06-10T17:46:28.044Z,59.43
2023-06-10T17:48:58.464Z,59.70
2023-06-10T17:51:31.507Z,60.19
2023-06-10T17:54:02.082Z,60.83
2023-06-10T17:56:32.079Z,61.75
2023-06-10T17:59:02.579Z,61.61
2023-06-10T18:01:34.090Z,62.25
2023-06-10T18:04:08.166Z,62.77
2023-06-10T18:06:41.321Z,62.86
2023-06-10T18:09:12.924Z,63.17
2023-06-10T18:11:43.337Z,62.27
2023-06-10T18:14:13.885Z,63.68
2023-06-10T18:16:44.477Z,64.60
2023-06-10T18:19:16.168Z,65.02
2023-06-10T18:21:49.148Z,65.50
2023-06-10T18:24:19.700Z,65.76
2023-06-10T18:26:50.588Z,66.15
2023-06-10T18:29:20.636Z,66.51
2023-06-10T18:31:50.951Z,67.66
2023-06-10T18:34:21.329Z,67.51
2023-06-10T18:36:54.260Z,67.74
2023-06-10T18:39:24.548Z,69.29
2023-06-10T18:41:54.925Z,69.30
2023-06-10T18:44:25.381Z,70.61
2023-06-10T18:46:55.669Z,70.49
2023-06-10T18:49:26.065Z,71.38
2023-06-10T18:51:59.078Z,72.27
2023-06-10T18:54:30.801Z,73.06
2023-06-10T18:57:02.217Z,72.58
2023-06-10T18:59:32.529Z,72.99
2023-06-10T19:02:03.172Z,73.37
2023-06-10T19:04:33.399Z,72.74
2023-06-10T19:07:06.601Z,72.93
2023-06-10T19:09:37.142Z,72.31
2023-06-10T19:12:08.562Z,71.65
2023-06-10T19:14:41.535Z,70.55
2023-06-10T19:17:12.167Z,72.53
2023-06-10T19:19:42.668Z,72.79
2023-06-10T19:22:15.718Z,73.07
2023-06-10T19:24:48.070Z,71.52
2023-06-10T19:27:18.545Z,72.37
2023-06-10T19:29:48.965Z,72.80
2023-06-10T19:32:19.241Z,73.19
2023-06-10T19:34:49.981Z,73.21
2023-06-10T19:37:23.218Z,73.18
2023-06-10T19:39:53.607Z,73.73
2023-06-10T19:42:24.467Z,74.16
2023-06-10T19:44:54.751Z,74.19
2023-06-10T19:47:25.273Z,74.29
2023-06-10T19:49:55.532Z,74.01
2023-06-10T19:52:29.177Z,73.77
2023-06-10T19:54:59.428Z,74.23
2023-06-10T19:57:29.998Z,73.86
2023-06-10T20:00:00.499Z,73.63
2023-06-10T20:02:32.410Z,73.81
2023-06-10T20:05:02.955Z,74.38
2023-06-10T20:07:36.353Z,74.41
2023-06-10T20:10:07.289Z,75.31
2023-06-10T20:12:37.617Z,75.46
2023-06-10T20:15:08.952Z,75.32
2023-06-10T20:17:39.477Z,75.25
2023-06-10T20:20:11.042Z,75.85
2023-06-10T20:22:43.899Z,75.80
2023-06-10T20:25:15.224Z,75.57
2023-06-10T20:27:45.884Z,75.42
2023-06-10T20:30:17.977Z,76.10
2023-06-10T20:32:48.464Z,76.54
2023-06-10T20:35:18.924Z,77.17
2023-06-10T20:37:52.988Z,77.64
2023-06-10T20:40:23.245Z,77.66
2023-06-10T20:42:53.692Z,77.99
2023-06-10T20:45:26.835Z,77.86
2023-06-10T20:47:57.198Z,77.54
2023-06-10T20:50:27.459Z,78.07
2023-06-10T20:53:00.491Z,77.17
2023-06-10T20:55:31.563Z,77.97
2023-06-10T20:58:01.875Z,77.78
2023-06-10T21:00:35.208Z,78.37
2023-06-10T21:03:07.598Z,78.69
2023-06-10T21:05:40.059Z,79.68
2023-06-10T21:08:19.787Z,79.42
2023-06-10T21:10:56.612Z,78.73
2023-06-10T21:13:27.189Z,78.95
2023-06-10T21:15:57.992Z,79.13
2023-06-10T21:18:35.545Z,79.80
2023-06-10T21:21:06.375Z,79.83
2023-06-10T21:23:39.151Z,80.17
2023-06-10T21:26:11.604Z,80.58
2023-06-10T21:28:43.029Z,80.51
2023-06-10T21:31:16.271Z,80.60
2023-06-10T21:33:46.842Z,80.62
2023-06-10T21:36:19.438Z,80.78
2023-06-10T21:38:52.858Z,81.29
2023-06-10T21:41:23.697Z,81.31
2023-06-10T21:43:54.991Z,81.06
2023-06-10T21:46:30.110Z,81.15
2023-06-10T21:49:09.064Z,81.77
2023-06-10T21:51:39.283Z,81.77
2023-06-10T21:54:12.708Z,82.29
2023-06-10T21:56:48.044Z,81.88
2023-06-10T21:59:19.227Z,81.91
2023-06-10T22:01:55.336Z,82.61
2023-06-10T22:04:27.328Z,82.24
2023-06-10T22:06:57.891Z,82.47
2023-06-10T22:09:31.964Z,82.54
2023-06-10T22:12:02.492Z,82.55
2023-06-10T22:14:34.915Z,82.62
2023-06-10T22:17:05.504Z,82.95
2023-06-10T22:19:39.806Z,82.92
2023-06-10T22:22:12.460Z,82.93
2023-06-10T22:24:53.290Z,83.01
2023-06-10T22:27:30.082Z,83.13
2023-06-10T22:30:02.526Z,83.01
2023-06-10T22:32:33.316Z,83.14
2023-06-10T22:35:07.298Z,83.83
2023-06-10T22:37:39.312Z,83.80
2023-06-10T22:40:13.914Z,83.20
2023-06-10T22:42:44.123Z,83.14
2023-06-10T22:45:20.048Z,83.01
2023-06-10T22:47:50.635Z,83.52
2023-06-10T22:50:23.413Z,83.17
2023-06-10T22:52:57.187Z,83.22
2023-06-10T22:55:30.256Z,83.37
2023-06-10T22:58:01.811Z,83.98
2023-06-10T23:00:33.762Z,83.80
2023-06-10T23:03:04.162Z,83.49
2023-06-10T23:05:37.023Z,83.63
2023-06-10T23:08:07.704Z,83.85
2023-06-10T23:10:41.655Z,83.14
2023-06-10T23:13:12.331Z,83.50
2023-06-10T23:15:44.966Z,83.69
2023-06-10T23:18:18.412Z,84.75
2023-06-10T23:20:52.262Z,84.70
2023-06-10T23:23:33.918Z,84.28
2023-06-10T23:26:08.219Z,84.65
2023-06-10T23:28:43.261Z,85.08
2023-06-10T23:31:13.738Z,85.00
2023-06-10T23:33:47.777Z,85.62
2023-06-10T23:36:18.191Z,85.36
2023-06-10T23:38:52.593Z,85.43
2023-06-10T23:41:25.933Z,85.49
2023-06-10T23:43:56.289Z,85.63
2023-06-10T23:46:26.834Z,86.07
2023-06-10T23:48:57.457Z,85.68
2023-06-10T23:51:28.134Z,86.66
2023-06-10T23:53:59.661Z,86.56
2023-06-10T23:56:32.877Z,87.04
2023-06-10T23:59:03.376Z,86.84
